sensor_id;sensor_type;location;lat;lon;timestamp;P1;durP1;ratioP1;P2;durP2;ratioP2
60726;SDS011;46577;49.004;12.120;2023-04-03T00:01:05;2.70;;;2.50;;
60726;SDS011;46577;49.004;12.120;2023-04-03T00:03:31;3.70;;;2.90;;
60726;SDS011;46577;49.004;12.120;2023-04-03T00:05:57;3.40;;;2.80;;
60726;SDS011;46577;49.004;12.120;2023-04-03T00:08:23;10.57;;;2.77;;
60726;SDS011;46577;49.004;12.120;2023-04-03T00:10:49;5.80;;;3.03;;
60726;SDS011;46577;49.004;12.120;2023-04-03T00:13:14;2.70;;;2.50;;
60726;SDS011;46577;49.004;12.120;2023-04-03T00:15:40;5.57;;;3.20;;
60726;SDS011;46577;49.004;12.120;2023-04-03T00:18:06;5.13;;;3.00;;
60726;SDS011;46577;49.004;12.120;2023-04-03T00:20:32;3.87;;;2.93;;
60726;SDS011;46577;49.004;12.120;2023-04-03T00:22:59;5.53;;;2.87;;
60726;SDS011;46577;49.004;12.120;2023-04-03T00:25:25;3.80;;;3.00;;
60726;SDS011;46577;49.004;12.120;2023-04-03T00:27:50;4.07;;;2.93;;
60726;SDS011;46577;49.004;12.120;2023-04-03T00:30:17;4.43;;;3.40;;
60726;SDS011;46577;49.004;12.120;2023-04-03T00:32:44;4.80;;;3.40;;
60726;SDS011;46577;49.004;12.120;2023-04-03T00:35:12;3.73;;;2.70;;
60726;SDS011;46577;49.004;12.120;2023-04-03T00:37:40;4.83;;;3.43;;
60726;SDS011;46577;49.004;12.120;2023-04-03T00:40:07;3.87;;;3.40;;
60726;SDS011;46577;49.004;12.120;2023-04-03T00:42:35;5.73;;;3.67;;
60726;SDS011;46577;49.004;12.120;2023-04-03T00:47:27;2.97;;;2.70;;
60726;SDS011;46577;49.004;12.120;2023-04-03T00:49:54;5.23;;;2.63;;
60726;SDS011;46577;49.004;12.120;2023-04-03T00:52:21;5.57;;;2.93;;
60726;SDS011;46577;49.004;12.120;2023-04-03T00:54:50;3.70;;;2.63;;
60726;SDS011;46577;49.004;12.120;2023-04-03T00:57:18;11.60;;;3.93;;
60726;SDS011;46577;49.004;12.120;2023-04-03T00:59:45;3.60;;;3.30;;
60726;SDS011;46577;49.004;12.120;2023-04-03T01:02:14;3.30;;;3.00;;
60726;SDS011;46577;49.004;12.120;2023-04-03T01:04:41;3.90;;;3.10;;
60726;SDS011;46577;49.004;12.120;2023-04-03T01:09:36;4.63;;;3.00;;
60726;SDS011;46577;49.004;12.120;2023-04-03T01:12:19;6.00;;;3.00;;
60726;SDS011;46577;49.004;12.120;2023-04-03T01:14:51;3.03;;;2.80;;
60726;SDS011;46577;49.004;12.120;2023-04-03T01:17:30;7.07;;;3.20;;
60726;SDS011;46577;49.004;12.120;2023-04-03T01:20:09;3.00;;;2.70;;
60726;SDS011;46577;49.004;12.120;2023-04-03T01:28:13;9.00;;;2.77;;
60726;SDS011;46577;49.004;12.120;2023-04-03T01:33:39;3.63;;;3.00;;
60726;SDS011;46577;49.004;12.120;2023-04-03T01:36:06;6.23;;;3.00;;
60726;SDS011;46577;49.004;12.120;2023-04-03T01:38:32;5.03;;;2.27;;
60726;SDS011;46577;49.004;12.120;2023-04-03T01:40:58;10.90;;;3.27;;
60726;SDS011;46577;49.004;12.120;2023-04-03T01:43:24;3.53;;;2.90;;
60726;SDS011;46577;49.004;12.120;2023-04-03T01:45:49;5.57;;;2.77;;
60726;SDS011;46577;49.004;12.120;2023-04-03T01:48:15;3.93;;;3.00;;
60726;SDS011;46577;49.004;12.120;2023-04-03T01:50:41;3.20;;;2.87;;
60726;SDS011;46577;49.004;12.120;2023-04-03T01:53:07;3.60;;;3.00;;
60726;SDS011;46577;49.004;12.120;2023-04-03T01:55:32;6.20;;;2.70;;
60726;SDS011;46577;49.004;12.120;2023-04-03T01:57:58;3.83;;;3.10;;
60726;SDS011;46577;49.004;12.120;2023-04-03T02:00:23;3.10;;;2.80;;
60726;SDS011;46577;49.004;12.120;2023-04-03T02:02:49;3.97;;;3.03;;
60726;SDS011;46577;49.004;12.120;2023-04-03T02:05:15;7.13;;;3.73;;
60726;SDS011;46577;49.004;12.120;2023-04-03T02:07:41;3.97;;;3.17;;
60726;SDS011;46577;49.004;12.120;2023-04-03T02:10:06;3.50;;;2.63;;
60726;SDS011;46577;49.004;12.120;2023-04-03T02:12:32;4.40;;;3.53;;
60726;SDS011;46577;49.004;12.120;2023-04-03T02:14:58;3.70;;;3.00;;
60726;SDS011;46577;49.004;12.120;2023-04-03T02:17:23;3.47;;;2.90;;
60726;SDS011;46577;49.004;12.120;2023-04-03T02:19:49;9.20;;;3.83;;
60726;SDS011;46577;49.004;12.120;2023-04-03T02:22:14;4.10;;;3.53;;
60726;SDS011;46577;49.004;12.120;2023-04-03T02:24:40;3.73;;;3.00;;
60726;SDS011;46577;49.004;12.120;2023-04-03T02:27:06;9.33;;;2.70;;
60726;SDS011;46577;49.004;12.120;2023-04-03T02:29:32;7.57;;;3.73;;
60726;SDS011;46577;49.004;12.120;2023-04-03T02:31:58;7.50;;;3.00;;
60726;SDS011;46577;49.004;12.120;2023-04-03T02:34:23;3.40;;;2.83;;
60726;SDS011;46577;49.004;12.120;2023-04-03T02:36:49;5.47;;;3.33;;
60726;SDS011;46577;49.004;12.120;2023-04-03T02:39:15;9.83;;;2.87;;
60726;SDS011;46577;49.004;12.120;2023-04-03T02:41:41;5.57;;;3.17;;
60726;SDS011;46577;49.004;12.120;2023-04-03T02:44:08;4.80;;;3.30;;
60726;SDS011;46577;49.004;12.120;2023-04-03T02:46:35;4.83;;;3.47;;
60726;SDS011;46577;49.004;12.120;2023-04-03T02:49:00;3.50;;;2.80;;
60726;SDS011;46577;49.004;12.120;2023-04-03T02:51:26;4.23;;;2.80;;
60726;SDS011;46577;49.004;12.120;2023-04-03T02:53:52;2.93;;;2.70;;
60726;SDS011;46577;49.004;12.120;2023-04-03T02:56:17;4.20;;;3.33;;
60726;SDS011;46577;49.004;12.120;2023-04-03T02:58:44;5.03;;;3.00;;
60726;SDS011;46577;49.004;12.120;2023-04-03T03:01:10;4.00;;;3.40;;
60726;SDS011;46577;49.004;12.120;2023-04-03T03:03:36;3.40;;;2.93;;
60726;SDS011;46577;49.004;12.120;2023-04-03T03:06:06;3.97;;;3.57;;
60726;SDS011;46577;49.004;12.120;2023-04-03T03:08:33;3.97;;;3.30;;
60726;SDS011;46577;49.004;12.120;2023-04-03T03:10:59;4.30;;;3.80;;
60726;SDS011;46577;49.004;12.120;2023-04-03T03:13:25;8.47;;;3.30;;
60726;SDS011;46577;49.004;12.120;2023-04-03T03:15:51;4.40;;;2.50;;
60726;SDS011;46577;49.004;12.120;2023-04-03T03:18:16;3.80;;;3.00;;
60726;SDS011;46577;49.004;12.120;2023-04-03T03:20:42;7.70;;;3.53;;
60726;SDS011;46577;49.004;12.120;2023-04-03T03:23:08;3.10;;;2.67;;
60726;SDS011;46577;49.004;12.120;2023-04-03T03:25:37;5.60;;;3.30;;
60726;SDS011;46577;49.004;12.120;2023-04-03T03:28:03;4.60;;;3.40;;
60726;SDS011;46577;49.004;12.120;2023-04-03T03:30:29;3.10;;;2.47;;
60726;SDS011;46577;49.004;12.120;2023-04-03T03:32:55;4.27;;;3.10;;
60726;SDS011;46577;49.004;12.120;2023-04-03T03:35:20;7.03;;;3.73;;
60726;SDS011;46577;49.004;12.120;2023-04-03T03:37:46;3.97;;;2.50;;
60726;SDS011;46577;49.004;12.120;2023-04-03T03:40:12;6.60;;;2.50;;
60726;SDS011;46577;49.004;12.120;2023-04-03T03:42:38;4.73;;;3.13;;
60726;SDS011;46577;49.004;12.120;2023-04-03T03:45:04;3.97;;;2.40;;
60726;SDS011;46577;49.004;12.120;2023-04-03T03:47:30;3.90;;;2.70;;
60726;SDS011;46577;49.004;12.120;2023-04-03T03:49:56;5.10;;;3.33;;
60726;SDS011;46577;49.004;12.120;2023-04-03T03:52:21;7.50;;;3.83;;
60726;SDS011;46577;49.004;12.120;2023-04-03T03:54:47;3.10;;;2.80;;
60726;SDS011;46577;49.004;12.120;2023-04-03T03:57:12;6.57;;;3.00;;
60726;SDS011;46577;49.004;12.120;2023-04-03T03:59:38;10.00;;;3.20;;
60726;SDS011;46577;49.004;12.120;2023-04-03T04:02:06;3.10;;;2.80;;
60726;SDS011;46577;49.004;12.120;2023-04-03T04:04:32;7.57;;;3.50;;
60726;SDS011;46577;49.004;12.120;2023-04-03T04:06:58;6.90;;;3.30;;
60726;SDS011;46577;49.004;12.120;2023-04-03T04:09:25;3.50;;;3.20;;
60726;SDS011;46577;49.004;12.120;2023-04-03T04:11:51;6.40;;;3.00;;
60726;SDS011;46577;49.004;12.120;2023-04-03T04:14:17;5.63;;;3.20;;
60726;SDS011;46577;49.004;12.120;2023-04-03T04:16:42;5.40;;;3.17;;
60726;SDS011;46577;49.004;12.120;2023-04-03T04:19:08;5.60;;;3.13;;
60726;SDS011;46577;49.004;12.120;2023-04-03T04:21:33;3.50;;;3.20;;
60726;SDS011;46577;49.004;12.120;2023-04-03T04:23:59;5.23;;;2.93;;
60726;SDS011;46577;49.004;12.120;2023-04-03T04:26:25;7.17;;;3.43;;
60726;SDS011;46577;49.004;12.120;2023-04-03T04:28:51;3.83;;;3.00;;
60726;SDS011;46577;49.004;12.120;2023-04-03T04:31:16;3.07;;;2.77;;
60726;SDS011;46577;49.004;12.120;2023-04-03T04:33:42;3.80;;;2.83;;
60726;SDS011;46577;49.004;12.120;2023-04-03T04:36:07;5.53;;;3.40;;
60726;SDS011;46577;49.004;12.120;2023-04-03T04:38:33;4.10;;;2.77;;
60726;SDS011;46577;49.004;12.120;2023-04-03T04:40:58;3.37;;;2.63;;
60726;SDS011;46577;49.004;12.120;2023-04-03T04:43:24;6.40;;;3.20;;
60726;SDS011;46577;49.004;12.120;2023-04-03T04:45:59;5.87;;;3.20;;
60726;SDS011;46577;49.004;12.120;2023-04-03T04:48:26;4.83;;;3.43;;
60726;SDS011;46577;49.004;12.120;2023-04-03T04:50:51;4.40;;;3.07;;
60726;SDS011;46577;49.004;12.120;2023-04-03T04:53:17;7.00;;;3.30;;
60726;SDS011;46577;49.004;12.120;2023-04-03T04:55:42;5.57;;;3.40;;
60726;SDS011;46577;49.004;12.120;2023-04-03T04:58:08;5.00;;;3.13;;
60726;SDS011;46577;49.004;12.120;2023-04-03T05:00:33;3.60;;;3.20;;
60726;SDS011;46577;49.004;12.120;2023-04-03T05:02:59;6.10;;;2.90;;
60726;SDS011;46577;49.004;12.120;2023-04-03T05:05:25;4.70;;;3.20;;
60726;SDS011;46577;49.004;12.120;2023-04-03T05:07:50;4.57;;;3.10;;
60726;SDS011;46577;49.004;12.120;2023-04-03T05:10:16;5.40;;;2.83;;
60726;SDS011;46577;49.004;12.120;2023-04-03T05:12:41;8.23;;;3.27;;
60726;SDS011;46577;49.004;12.120;2023-04-03T05:15:07;3.60;;;3.07;;
60726;SDS011;46577;49.004;12.120;2023-04-03T05:17:33;3.60;;;3.30;;
60726;SDS011;46577;49.004;12.120;2023-04-03T05:19:59;4.80;;;3.13;;
60726;SDS011;46577;49.004;12.120;2023-04-03T05:22:24;6.27;;;3.60;;
60726;SDS011;46577;49.004;12.120;2023-04-03T05:24:50;4.03;;;3.27;;
60726;SDS011;46577;49.004;12.120;2023-04-03T05:27:15;4.43;;;2.80;;
60726;SDS011;46577;49.004;12.120;2023-04-03T05:29:41;3.73;;;2.97;;
60726;SDS011;46577;49.004;12.120;2023-04-03T05:32:08;6.30;;;2.90;;
60726;SDS011;46577;49.004;12.120;2023-04-03T05:34:35;7.47;;;3.60;;
60726;SDS011;46577;49.004;12.120;2023-04-03T05:37:01;4.67;;;3.37;;
60726;SDS011;46577;49.004;12.120;2023-04-03T05:39:28;7.67;;;3.43;;
60726;SDS011;46577;49.004;12.120;2023-04-03T05:41:53;5.63;;;3.60;;
60726;SDS011;46577;49.004;12.120;2023-04-03T05:44:19;4.57;;;3.13;;
60726;SDS011;46577;49.004;12.120;2023-04-03T05:46:44;8.63;;;3.03;;
60726;SDS011;46577;49.004;12.120;2023-04-03T05:49:10;9.33;;;3.40;;
60726;SDS011;46577;49.004;12.120;2023-04-03T05:51:36;5.63;;;3.20;;
60726;SDS011;46577;49.004;12.120;2023-04-03T05:54:13;11.90;;;3.13;;
60726;SDS011;46577;49.004;12.120;2023-04-03T05:56:43;7.07;;;3.57;;
60726;SDS011;46577;49.004;12.120;2023-04-03T05:59:09;7.43;;;3.80;;
60726;SDS011;46577;49.004;12.120;2023-04-03T06:01:35;5.63;;;3.90;;
60726;SDS011;46577;49.004;12.120;2023-04-03T06:04:00;10.37;;;3.23;;
60726;SDS011;46577;49.004;12.120;2023-04-03T06:06:26;3.97;;;3.57;;
60726;SDS011;46577;49.004;12.120;2023-04-03T06:09:18;7.13;;;2.90;;
60726;SDS011;46577;49.004;12.120;2023-04-03T06:11:46;4.67;;;3.27;;
60726;SDS011;46577;49.004;12.120;2023-04-03T06:14:11;8.17;;;4.13;;
60726;SDS011;46577;49.004;12.120;2023-04-03T06:16:37;7.20;;;3.17;;
60726;SDS011;46577;49.004;12.120;2023-04-03T06:19:04;6.30;;;3.50;;
60726;SDS011;46577;49.004;12.120;2023-04-03T06:21:31;8.77;;;3.40;;
60726;SDS011;46577;49.004;12.120;2023-04-03T06:23:56;8.23;;;3.50;;
60726;SDS011;46577;49.004;12.120;2023-04-03T06:26:22;9.60;;;3.47;;
60726;SDS011;46577;49.004;12.120;2023-04-03T06:28:48;11.67;;;3.83;;
60726;SDS011;46577;49.004;12.120;2023-04-03T06:31:13;7.73;;;3.47;;
60726;SDS011;46577;49.004;12.120;2023-04-03T06:33:39;7.43;;;3.43;;
60726;SDS011;46577;49.004;12.120;2023-04-03T06:36:05;5.83;;;3.53;;
60726;SDS011;46577;49.004;12.120;2023-04-03T06:38:32;10.63;;;3.30;;
60726;SDS011;46577;49.004;12.120;2023-04-03T06:40:58;12.50;;;3.57;;
60726;SDS011;46577;49.004;12.120;2023-04-03T06:43:25;10.60;;;4.03;;
60726;SDS011;46577;49.004;12.120;2023-04-03T06:45:51;6.17;;;3.93;;
60726;SDS011;46577;49.004;12.120;2023-04-03T06:48:17;8.63;;;4.50;;
60726;SDS011;46577;49.004;12.120;2023-04-03T06:50:42;4.43;;;3.17;;
60726;SDS011;46577;49.004;12.120;2023-04-03T06:53:08;5.50;;;3.27;;
60726;SDS011;46577;49.004;12.120;2023-04-03T06:55:34;7.47;;;3.80;;
60726;SDS011;46577;49.004;12.120;2023-04-03T06:58:00;14.90;;;5.00;;
60726;SDS011;46577;49.004;12.120;2023-04-03T07:00:26;13.50;;;4.07;;
60726;SDS011;46577;49.004;12.120;2023-04-03T07:02:52;8.80;;;3.80;;
60726;SDS011;46577;49.004;12.120;2023-04-03T07:05:18;6.97;;;4.33;;
60726;SDS011;46577;49.004;12.120;2023-04-03T07:07:44;6.30;;;3.70;;
60726;SDS011;46577;49.004;12.120;2023-04-03T07:10:10;6.83;;;3.50;;
60726;SDS011;46577;49.004;12.120;2023-04-03T07:12:36;7.10;;;3.40;;
60726;SDS011;46577;49.004;12.120;2023-04-03T07:15:03;10.53;;;3.67;;
60726;SDS011;46577;49.004;12.120;2023-04-03T07:17:30;6.70;;;3.20;;
60726;SDS011;46577;49.004;12.120;2023-04-03T07:19:56;12.70;;;5.13;;
60726;SDS011;46577;49.004;12.120;2023-04-03T07:22:21;6.30;;;2.63;;
60726;SDS011;46577;49.004;12.120;2023-04-03T07:24:47;4.20;;;2.90;;
60726;SDS011;46577;49.004;12.120;2023-04-03T07:27:13;6.50;;;3.20;;
60726;SDS011;46577;49.004;12.120;2023-04-03T07:29:38;5.90;;;2.90;;
60726;SDS011;46577;49.004;12.120;2023-04-03T07:32:04;8.17;;;3.27;;
60726;SDS011;46577;49.004;12.120;2023-04-03T07:34:32;4.10;;;2.77;;
60726;SDS011;46577;49.004;12.120;2023-04-03T07:36:58;6.83;;;3.17;;
60726;SDS011;46577;49.004;12.120;2023-04-03T07:39:23;5.20;;;2.97;;
60726;SDS011;46577;49.004;12.120;2023-04-03T07:41:49;6.90;;;3.37;;
60726;SDS011;46577;49.004;12.120;2023-04-03T07:44:15;12.20;;;3.80;;
60726;SDS011;46577;49.004;12.120;2023-04-03T07:46:40;4.00;;;2.53;;
60726;SDS011;46577;49.004;12.120;2023-04-03T07:49:07;7.43;;;2.93;;
60726;SDS011;46577;49.004;12.120;2023-04-03T07:51:33;7.10;;;3.10;;
60726;SDS011;46577;49.004;12.120;2023-04-03T07:53:58;5.50;;;2.57;;
60726;SDS011;46577;49.004;12.120;2023-04-03T07:56:24;13.23;;;2.60;;
60726;SDS011;46577;49.004;12.120;2023-04-03T07:58:50;7.57;;;3.40;;
60726;SDS011;46577;49.004;12.120;2023-04-03T08:01:15;9.33;;;2.83;;
60726;SDS011;46577;49.004;12.120;2023-04-03T08:03:41;6.50;;;2.10;;
60726;SDS011;46577;49.004;12.120;2023-04-03T08:06:07;5.50;;;1.90;;
60726;SDS011;46577;49.004;12.120;2023-04-03T08:08:33;4.97;;;2.80;;
60726;SDS011;46577;49.004;12.120;2023-04-03T08:11:00;11.83;;;2.70;;
60726;SDS011;46577;49.004;12.120;2023-04-03T08:13:27;13.20;;;2.77;;
60726;SDS011;46577;49.004;12.120;2023-04-03T08:15:54;4.20;;;2.57;;
60726;SDS011;46577;49.004;12.120;2023-04-03T08:18:22;8.40;;;3.87;;
60726;SDS011;46577;49.004;12.120;2023-04-03T08:20:49;7.53;;;2.30;;
60726;SDS011;46577;49.004;12.120;2023-04-03T08:23:15;2.80;;;2.33;;
60726;SDS011;46577;49.004;12.120;2023-04-03T08:25:41;3.27;;;2.20;;
60726;SDS011;46577;49.004;12.120;2023-04-03T08:28:08;6.63;;;2.10;;
60726;SDS011;46577;49.004;12.120;2023-04-03T08:30:34;4.57;;;2.53;;
60726;SDS011;46577;49.004;12.120;2023-04-03T08:33:01;2.33;;;1.67;;
60726;SDS011;46577;49.004;12.120;2023-04-03T08:35:27;2.23;;;1.57;;
60726;SDS011;46577;49.004;12.120;2023-04-03T08:37:52;4.93;;;2.03;;
60726;SDS011;46577;49.004;12.120;2023-04-03T08:40:18;6.37;;;2.10;;
60726;SDS011;46577;49.004;12.120;2023-04-03T08:48:17;3.93;;;2.03;;
60726;SDS011;46577;49.004;12.120;2023-04-03T08:50:47;3.73;;;2.13;;
60726;SDS011;46577;49.004;12.120;2023-04-03T08:53:27;6.70;;;1.80;;
60726;SDS011;46577;49.004;12.120;2023-04-03T08:55:57;6.07;;;1.80;;
60726;SDS011;46577;49.004;12.120;2023-04-03T08:58:28;2.90;;;1.67;;
60726;SDS011;46577;49.004;12.120;2023-04-03T09:01:17;7.77;;;1.77;;
60726;SDS011;46577;49.004;12.120;2023-04-03T09:03:44;3.07;;;1.80;;
60726;SDS011;46577;49.004;12.120;2023-04-03T09:06:14;4.63;;;2.13;;
60726;SDS011;46577;49.004;12.120;2023-04-03T09:14:14;3.50;;;1.30;;
60726;SDS011;46577;49.004;12.120;2023-04-03T09:16:56;2.80;;;1.50;;
60726;SDS011;46577;49.004;12.120;2023-04-03T09:19:39;6.00;;;1.83;;
60726;SDS011;46577;49.004;12.120;2023-04-03T09:22:17;2.50;;;1.27;;
60726;SDS011;46577;49.004;12.120;2023-04-03T09:27:40;3.73;;;1.23;;
60726;SDS011;46577;49.004;12.120;2023-04-03T09:30:11;1.50;;;1.20;;
60726;SDS011;46577;49.004;12.120;2023-04-03T09:32:46;2.97;;;1.43;;
60726;SDS011;46577;49.004;12.120;2023-04-03T09:35:18;4.47;;;1.90;;
60726;SDS011;46577;49.004;12.120;2023-04-03T09:38:15;6.60;;;1.60;;
60726;SDS011;46577;49.004;12.120;2023-04-03T09:41:05;4.37;;;1.40;;
60726;SDS011;46577;49.004;12.120;2023-04-03T09:43:38;6.23;;;1.57;;
60726;SDS011;46577;49.004;12.120;2023-04-03T09:48:56;6.47;;;1.80;;
60726;SDS011;46577;49.004;12.120;2023-04-03T09:51:32;4.87;;;1.37;;
60726;SDS011;46577;49.004;12.120;2023-04-03T09:53:58;2.77;;;1.47;;
60726;SDS011;46577;49.004;12.120;2023-04-03T09:56:25;2.20;;;1.33;;
60726;SDS011;46577;49.004;12.120;2023-04-03T10:06:46;2.60;;;1.57;;
60726;SDS011;46577;49.004;12.120;2023-04-03T10:11:57;2.37;;;1.30;;
60726;SDS011;46577;49.004;12.120;2023-04-03T10:14:37;6.67;;;1.53;;
60726;SDS011;46577;49.004;12.120;2023-04-03T10:17:36;5.10;;;1.17;;
60726;SDS011;46577;49.004;12.120;2023-04-03T10:23:31;4.70;;;1.23;;
60726;SDS011;46577;49.004;12.120;2023-04-03T10:26:09;4.43;;;1.30;;
60726;SDS011;46577;49.004;12.120;2023-04-03T10:29:02;1.27;;;1.10;;
60726;SDS011;46577;49.004;12.120;2023-04-03T10:34:28;4.70;;;1.30;;
60726;SDS011;46577;49.004;12.120;2023-04-03T10:37:04;6.50;;;1.63;;
60726;SDS011;46577;49.004;12.120;2023-04-03T10:53:30;2.70;;;1.33;;
60726;SDS011;46577;49.004;12.120;2023-04-03T11:01:44;2.90;;;1.80;;
60726;SDS011;46577;49.004;12.120;2023-04-03T11:04:13;1.80;;;1.30;;
60726;SDS011;46577;49.004;12.120;2023-04-03T11:06:52;2.30;;;1.23;;
60726;SDS011;46577;49.004;12.120;2023-04-03T11:12:04;1.57;;;1.33;;
60726;SDS011;46577;49.004;12.120;2023-04-03T11:14:35;2.93;;;1.13;;
60726;SDS011;46577;49.004;12.120;2023-04-03T11:19:42;3.77;;;1.30;;
60726;SDS011;46577;49.004;12.120;2023-04-03T11:22:16;1.67;;;1.00;;
60726;SDS011;46577;49.004;12.120;2023-04-03T11:27:55;2.10;;;1.00;;
60726;SDS011;46577;49.004;12.120;2023-04-03T11:36:21;4.23;;;2.13;;
60726;SDS011;46577;49.004;12.120;2023-04-03T11:39:21;4.63;;;1.43;;
60726;SDS011;46577;49.004;12.120;2023-04-03T11:41:50;4.77;;;1.80;;
60726;SDS011;46577;49.004;12.120;2023-04-03T11:44:36;6.27;;;1.97;;
60726;SDS011;46577;49.004;12.120;2023-04-03T11:47:03;2.10;;;1.67;;
60726;SDS011;46577;49.004;12.120;2023-04-03T11:49:50;1.87;;;1.60;;
60726;SDS011;46577;49.004;12.120;2023-04-03T11:55:34;4.23;;;1.50;;
60726;SDS011;46577;49.004;12.120;2023-04-03T12:05:56;4.47;;;1.30;;
60726;SDS011;46577;49.004;12.120;2023-04-03T12:13:34;4.27;;;1.40;;
60726;SDS011;46577;49.004;12.120;2023-04-03T12:16:02;2.13;;;1.60;;
60726;SDS011;46577;49.004;12.120;2023-04-03T12:18:39;6.10;;;1.70;;
60726;SDS011;46577;49.004;12.120;2023-04-03T12:21:10;9.50;;;1.90;;
60726;SDS011;46577;49.004;12.120;2023-04-03T12:23:56;2.10;;;1.80;;
60726;SDS011;46577;49.004;12.120;2023-04-03T12:26:47;4.20;;;1.30;;
60726;SDS011;46577;49.004;12.120;2023-04-03T12:46:12;14.83;;;1.60;;
60726;SDS011;46577;49.004;12.120;2023-04-03T12:51:13;8.83;;;1.73;;
60726;SDS011;46577;49.004;12.120;2023-04-03T12:54:04;6.33;;;1.87;;
60726;SDS011;46577;49.004;12.120;2023-04-03T12:56:43;13.07;;;1.90;;
60726;SDS011;46577;49.004;12.120;2023-04-03T12:59:18;22.90;;;2.63;;
60726;SDS011;46577;49.004;12.120;2023-04-03T13:01:53;12.17;;;2.30;;
60726;SDS011;46577;49.004;12.120;2023-04-03T13:04:20;7.00;;;2.60;;
60726;SDS011;46577;49.004;12.120;2023-04-03T13:06:47;12.40;;;1.90;;
60726;SDS011;46577;49.004;12.120;2023-04-03T13:09:47;5.00;;;1.63;;
60726;SDS011;46577;49.004;12.120;2023-04-03T13:12:12;4.30;;;1.87;;
60726;SDS011;46577;49.004;12.120;2023-04-03T13:14:39;3.27;;;1.57;;
60726;SDS011;46577;49.004;12.120;2023-04-03T13:17:10;2.33;;;1.30;;
60726;SDS011;46577;49.004;12.120;2023-04-03T13:19:39;3.13;;;1.50;;
60726;SDS011;46577;49.004;12.120;2023-04-03T13:24:54;8.50;;;1.47;;
60726;SDS011;46577;49.004;12.120;2023-04-03T13:27:24;7.77;;;1.60;;
60726;SDS011;46577;49.004;12.120;2023-04-03T13:29:54;4.80;;;1.73;;
60726;SDS011;46577;49.004;12.120;2023-04-03T13:32:23;7.80;;;1.70;;
60726;SDS011;46577;49.004;12.120;2023-04-03T13:34:51;10.70;;;1.37;;
60726;SDS011;46577;49.004;12.120;2023-04-03T13:37:24;6.93;;;1.47;;
60726;SDS011;46577;49.004;12.120;2023-04-03T13:40:18;1.90;;;1.67;;
60726;SDS011;46577;49.004;12.120;2023-04-03T13:42:43;6.33;;;1.33;;
60726;SDS011;46577;49.004;12.120;2023-04-03T13:45:24;7.60;;;1.77;;
60726;SDS011;46577;49.004;12.120;2023-04-03T13:47:54;7.10;;;1.70;;
60726;SDS011;46577;49.004;12.120;2023-04-03T13:50:41;4.13;;;1.37;;
60726;SDS011;46577;49.004;12.120;2023-04-03T13:53:26;6.33;;;1.40;;
60726;SDS011;46577;49.004;12.120;2023-04-03T13:56:05;1.90;;;1.40;;
60726;SDS011;46577;49.004;12.120;2023-04-03T13:58:34;3.10;;;1.30;;
60726;SDS011;46577;49.004;12.120;2023-04-03T14:06:08;10.23;;;1.70;;
60726;SDS011;46577;49.004;12.120;2023-04-03T14:08:36;5.23;;;1.40;;
60726;SDS011;46577;49.004;12.120;2023-04-03T14:11:02;6.70;;;1.83;;
60726;SDS011;46577;49.004;12.120;2023-04-03T14:13:31;2.60;;;1.60;;
60726;SDS011;46577;49.004;12.120;2023-04-03T14:15:57;6.00;;;1.53;;
60726;SDS011;46577;49.004;12.120;2023-04-03T14:18:22;3.70;;;1.40;;
60726;SDS011;46577;49.004;12.120;2023-04-03T14:20:48;9.60;;;3.90;;
60726;SDS011;46577;49.004;12.120;2023-04-03T14:23:14;2.20;;;1.43;;
60726;SDS011;46577;49.004;12.120;2023-04-03T14:25:40;15.80;;;2.20;;
60726;SDS011;46577;49.004;12.120;2023-04-03T14:28:14;2.70;;;1.57;;
60726;SDS011;46577;49.004;12.120;2023-04-03T14:30:46;3.37;;;1.43;;
60726;SDS011;46577;49.004;12.120;2023-04-03T14:33:14;1.80;;;1.50;;
60726;SDS011;46577;49.004;12.120;2023-04-03T14:35:43;6.17;;;3.60;;
60726;SDS011;46577;49.004;12.120;2023-04-03T14:38:26;15.13;;;1.80;;
60726;SDS011;46577;49.004;12.120;2023-04-03T14:40:55;5.40;;;1.73;;
60726;SDS011;46577;49.004;12.120;2023-04-03T14:43:21;2.80;;;1.53;;
60726;SDS011;46577;49.004;12.120;2023-04-03T14:45:48;8.53;;;1.90;;
60726;SDS011;46577;49.004;12.120;2023-04-03T14:48:19;4.10;;;1.70;;
60726;SDS011;46577;49.004;12.120;2023-04-03T14:50:47;11.60;;;1.70;;
60726;SDS011;46577;49.004;12.120;2023-04-03T14:53:13;8.30;;;1.60;;
60726;SDS011;46577;49.004;12.120;2023-04-03T14:55:40;13.83;;;1.73;;
60726;SDS011;46577;49.004;12.120;2023-04-03T14:58:09;7.27;;;1.83;;
60726;SDS011;46577;49.004;12.120;2023-04-03T15:00:42;2.90;;;1.50;;
60726;SDS011;46577;49.004;12.120;2023-04-03T15:03:26;3.87;;;1.60;;
60726;SDS011;46577;49.004;12.120;2023-04-03T15:05:51;3.80;;;1.53;;
60726;SDS011;46577;49.004;12.120;2023-04-03T15:10:48;2.80;;;2.07;;
60726;SDS011;46577;49.004;12.120;2023-04-03T15:13:14;2.57;;;1.80;;
60726;SDS011;46577;49.004;12.120;2023-04-03T15:15:40;3.20;;;1.40;;
60726;SDS011;46577;49.004;12.120;2023-04-03T15:18:06;2.30;;;1.60;;
60726;SDS011;46577;49.004;12.120;2023-04-03T15:20:31;7.40;;;2.07;;
60726;SDS011;46577;49.004;12.120;2023-04-03T15:22:58;2.50;;;1.07;;
60726;SDS011;46577;49.004;12.120;2023-04-03T15:25:29;5.50;;;1.60;;
60726;SDS011;46577;49.004;12.120;2023-04-03T15:27:56;4.37;;;1.60;;
60726;SDS011;46577;49.004;12.120;2023-04-03T15:30:22;1.47;;;1.10;;
60726;SDS011;46577;49.004;12.120;2023-04-03T15:32:48;4.00;;;1.30;;
60726;SDS011;46577;49.004;12.120;2023-04-03T15:35:14;4.77;;;1.60;;
60726;SDS011;46577;49.004;12.120;2023-04-03T15:37:40;4.60;;;1.80;;
60726;SDS011;46577;49.004;12.120;2023-04-03T15:40:06;2.23;;;1.50;;
60726;SDS011;46577;49.004;12.120;2023-04-03T15:42:32;4.97;;;2.40;;
60726;SDS011;46577;49.004;12.120;2023-04-03T15:44:58;6.40;;;2.40;;
60726;SDS011;46577;49.004;12.120;2023-04-03T15:47:24;8.33;;;2.10;;
60726;SDS011;46577;49.004;12.120;2023-04-03T15:49:51;2.53;;;1.63;;
60726;SDS011;46577;49.004;12.120;2023-04-03T15:52:17;2.57;;;1.70;;
60726;SDS011;46577;49.004;12.120;2023-04-03T15:54:43;4.50;;;1.33;;
60726;SDS011;46577;49.004;12.120;2023-04-03T15:57:08;4.47;;;1.37;;
60726;SDS011;46577;49.004;12.120;2023-04-03T15:59:34;4.40;;;1.70;;
60726;SDS011;46577;49.004;12.120;2023-04-03T16:01:59;4.63;;;1.63;;
60726;SDS011;46577;49.004;12.120;2023-04-03T16:04:28;3.93;;;1.53;;
60726;SDS011;46577;49.004;12.120;2023-04-03T16:06:54;2.90;;;1.83;;
60726;SDS011;46577;49.004;12.120;2023-04-03T16:09:20;1.90;;;1.37;;
60726;SDS011;46577;49.004;12.120;2023-04-03T16:11:46;2.80;;;1.60;;
60726;SDS011;46577;49.004;12.120;2023-04-03T16:14:11;3.63;;;2.00;;
60726;SDS011;46577;49.004;12.120;2023-04-03T16:16:37;1.90;;;1.50;;
60726;SDS011;46577;49.004;12.120;2023-04-03T16:19:03;4.20;;;1.77;;
60726;SDS011;46577;49.004;12.120;2023-04-03T16:21:29;5.10;;;2.03;;
60726;SDS011;46577;49.004;12.120;2023-04-03T16:23:57;3.40;;;1.90;;
60726;SDS011;46577;49.004;12.120;2023-04-03T16:26:23;1.70;;;1.20;;
60726;SDS011;46577;49.004;12.120;2023-04-03T16:28:49;3.83;;;2.10;;
60726;SDS011;46577;49.004;12.120;2023-04-03T16:31:14;4.67;;;1.80;;
60726;SDS011;46577;49.004;12.120;2023-04-03T16:33:40;5.03;;;1.80;;
60726;SDS011;46577;49.004;12.120;2023-04-03T16:36:05;9.43;;;1.93;;
60726;SDS011;46577;49.004;12.120;2023-04-03T16:38:31;3.93;;;1.90;;
60726;SDS011;46577;49.004;12.120;2023-04-03T16:40:57;3.23;;;1.70;;
60726;SDS011;46577;49.004;12.120;2023-04-03T16:43:24;7.67;;;1.53;;
60726;SDS011;46577;49.004;12.120;2023-04-03T16:45:51;6.23;;;1.80;;
60726;SDS011;46577;49.004;12.120;2023-04-03T16:48:16;12.03;;;1.73;;